Time;durP1;ratioP1;P1;durP2;ratioP2;P2;SDS_P1;SDS_P2;PMS_P1;PMS_P2;Temp;Humidity;BMP_temperature;BMP_pressure;BME280_temperature;BME280_humidity;BME280_pressure;Samples;Min_cycle;Max_cycle;Signal;HPM_P1;HPM_P2
2022/07/13 00:00:16;;;;;;;4.20;2.90;;;;;;;;;;5051717;28;20949;-77
2022/07/13 00:02:42;;;;;;;4.03;2.00;;;;;;;;;;5051521;28;20404;-78
2022/07/13 00:05:09;;;;;;;7.53;2.30;;;;;;;;;;5051313;28;20835;-77
2022/07/13 00:07:35;;;;;;;4.13;2.20;;;;;;;;;;5050756;28;20417;-77
2022/07/13 00:10:01;;;;;;;3.03;2.20;;;;;;;;;;5051866;28;20397;-77
2022/07/13 00:12:27;;;;;;;5.70;2.60;;;;;;;;;;5051890;28;20874;-77
2022/07/13 00:14:53;;;;;;;5.37;2.50;;;;;;;;;;5051164;28;20415;-77
2022/07/13 00:17:19;;;;;;;2.57;2.37;;;;;;;;;;5051700;28;20416;-77
2022/07/13 00:19:46;;;;;;;3.13;2.20;;;;;;;;;;5051755;28;20399;-77
2022/07/13 00:22:12;;;;;;;6.57;3.10;;;;;;;;;;5051559;28;20406;-77
2022/07/13 00:24:38;;;;;;;3.13;2.20;;;;;;;;;;5051202;28;20380;-77
2022/07/13 00:27:04;;;;;;;2.50;2.30;;;;;;;;;;5051507;28;20462;-77
2022/07/13 00:29:30;;;;;;;6.00;2.50;;;;;;;;;;5051381;28;20408;-77
2022/07/13 00:31:56;;;;;;;4.47;2.23;;;;;;;;;;5051484;28;20436;-78
2022/07/13 00:34:22;;;;;;;5.57;2.00;;;;;;;;;;5051004;28;20497;-78
2022/07/13 00:36:48;;;;;;;4.17;2.30;;;;;;;;;;5051035;28;20556;-77
2022/07/13 00:39:14;;;;;;;2.30;2.10;;;;;;;;;;5051296;28;20787;-77
2022/07/13 00:41:47;;;;;;;3.17;2.47;;;;;;;;;;5051311;28;20416;-77
2022/07/13 00:44:13;;;;;;;2.60;2.40;;;;;;;;;;5050857;28;20505;-77
2022/07/13 00:46:42;;;;;;;2.60;1.73;;;;;;;;;;5051068;28;20855;-77
2022/07/13 00:49:10;;;;;;;2.53;2.10;;;;;;;;;;5051164;28;20423;-78
2022/07/13 00:51:36;;;;;;;2.60;1.87;;;;;;;;;;5051099;28;20408;-77
2022/07/13 00:54:02;;;;;;;6.10;2.10;;;;;;;;;;5050692;28;20891;-77
2022/07/13 00:56:28;;;;;;;1.97;1.77;;;;;;;;;;5049722;28;20918;-77
2022/07/13 00:58:54;;;;;;;2.47;2.27;;;;;;;;;;5050330;28;20416;-77
2022/07/13 01:01:20;;;;;;;3.93;2.30;;;;;;;;;;5050722;28;20428;-77
2022/07/13 01:03:46;;;;;;;5.73;2.73;;;;;;;;;;5050586;28;20384;-77
2022/07/13 01:06:13;;;;;;;5.77;2.50;;;;;;;;;;5050693;28;20527;-76
2022/07/13 01:08:39;;;;;;;5.93;2.40;;;;;;;;;;5050965;28;20516;-77
2022/07/13 01:11:05;;;;;;;5.97;2.70;;;;;;;;;;5050686;28;20409;-78
2022/07/13 01:13:31;;;;;;;3.73;2.90;;;;;;;;;;5050252;28;20423;-77
2022/07/13 01:15:57;;;;;;;3.40;2.57;;;;;;;;;;5050490;28;20469;-76
2022/07/13 01:18:24;;;;;;;3.50;3.00;;;;;;;;;;5050577;28;20856;-77
2022/07/13 01:20:51;;;;;;;3.40;2.97;;;;;;;;;;5050443;28;20809;-76
2022/07/13 01:23:18;;;;;;;3.97;3.10;;;;;;;;;;5050009;28;20413;-77
2022/07/13 01:25:44;;;;;;;6.50;3.60;;;;;;;;;;5050383;28;20549;-76
2022/07/13 01:28:13;;;;;;;4.37;3.10;;;;;;;;;;5050482;28;20415;-77
2022/07/13 01:30:39;;;;;;;7.30;3.50;;;;;;;;;;5050350;28;20411;-77
2022/07/13 01:33:05;;;;;;;3.80;2.73;;;;;;;;;;5048770;28;20440;-76
2022/07/13 01:35:31;;;;;;;4.40;2.83;;;;;;;;;;5048786;28;20475;-76
2022/07/13 01:37:59;;;;;;;4.07;2.50;;;;;;;;;;5050356;28;20959;-77
2022/07/13 01:40:25;;;;;;;7.33;3.30;;;;;;;;;;5050207;28;20495;-77
2022/07/13 01:42:52;;;;;;;2.70;2.50;;;;;;;;;;5050143;28;20383;-77
2022/07/13 01:45:19;;;;;;;3.60;2.93;;;;;;;;;;5050113;28;20439;-77
2022/07/13 01:47:49;;;;;;;4.53;2.70;;;;;;;;;;5050105;28;20395;-76
2022/07/13 01:50:16;;;;;;;3.13;2.90;;;;;;;;;;5050173;28;20401;-76
2022/07/13 01:52:42;;;;;;;4.10;3.70;;;;;;;;;;5050007;28;20857;-77
2022/07/13 01:55:09;;;;;;;4.50;2.90;;;;;;;;;;5049506;28;20769;-76
2022/07/13 01:57:35;;;;;;;4.23;2.40;;;;;;;;;;5050274;27;20399;-79
2022/07/13 02:00:03;;;;;;;6.83;3.00;;;;;;;;;;5049855;28;20466;-77
2022/07/13 02:02:29;;;;;;;3.63;2.53;;;;;;;;;;5049991;28;20436;-77
2022/07/13 02:04:55;;;;;;;4.20;2.60;;;;;;;;;;5049526;28;20460;-76
2022/07/13 02:07:22;;;;;;;3.40;2.43;;;;;;;;;;5050224;28;20914;-77
2022/07/13 02:09:49;;;;;;;5.03;2.67;;;;;;;;;;5048969;28;20392;-77
2022/07/13 02:12:15;;;;;;;3.70;2.80;;;;;;;;;;5049461;28;20409;-77
2022/07/13 02:14:41;;;;;;;2.90;2.70;;;;;;;;;;5049449;28;20407;-77
2022/07/13 02:17:07;;;;;;;5.97;3.00;;;;;;;;;;5048527;28;20435;-77
2022/07/13 02:19:33;;;;;;;3.10;2.30;;;;;;;;;;5048596;28;20406;-77
2022/07/13 02:21:59;;;;;;;2.67;2.43;;;;;;;;;;5049694;28;20409;-77
2022/07/13 02:24:25;;;;;;;4.07;2.83;;;;;;;;;;5049424;28;20434;-77
2022/07/13 02:26:51;;;;;;;2.97;2.30;;;;;;;;;;5049626;28;20414;-77
2022/07/13 02:29:17;;;;;;;2.80;2.50;;;;;;;;;;5049844;28;20395;-79
2022/07/13 02:31:43;;;;;;;3.20;2.73;;;;;;;;;;5049573;28;20481;-77
2022/07/13 02:34:09;;;;;;;4.93;2.70;;;;;;;;;;5049153;28;20395;-77
2022/07/13 02:36:35;;;;;;;3.63;2.70;;;;;;;;;;5048394;28;20558;-76
2022/07/13 02:39:01;;;;;;;3.30;3.00;;;;;;;;;;5049705;28;20520;-76
2022/07/13 02:41:27;;;;;;;3.50;2.50;;;;;;;;;;5048240;28;20395;-77
2022/07/13 02:43:53;;;;;;;3.83;2.70;;;;;;;;;;5049074;28;20470;-78
2022/07/13 02:46:19;;;;;;;3.10;2.70;;;;;;;;;;5049396;28;20443;-77
2022/07/13 02:48:45;;;;;;;3.57;2.37;;;;;;;;;;5049564;28;20467;-76
2022/07/13 02:51:11;;;;;;;3.20;2.70;;;;;;;;;;5049467;28;20416;-77
2022/07/13 02:53:37;;;;;;;3.23;2.50;;;;;;;;;;5047823;28;20420;-79
2022/07/13 02:56:06;;;;;;;5.70;2.27;;;;;;;;;;5048996;28;20460;-75
2022/07/13 02:58:32;;;;;;;3.53;2.20;;;;;;;;;;5049196;28;20409;-77
2022/07/13 03:00:58;;;;;;;3.80;2.30;;;;;;;;;;5049286;28;20435;-76
2022/07/13 03:03:24;;;;;;;2.43;2.23;;;;;;;;;;5048953;28;20419;-77
2022/07/13 03:05:50;;;;;;;3.10;2.70;;;;;;;;;;5049210;28;20415;-79
2022/07/13 03:08:16;;;;;;;2.47;2.20;;;;;;;;;;5049062;28;20426;-77
2022/07/13 03:10:42;;;;;;;3.07;2.27;;;;;;;;;;5049291;28;20409;-77
2022/07/13 03:13:08;;;;;;;2.80;2.50;;;;;;;;;;5048895;28;20390;-77
2022/07/13 03:15:34;;;;;;;5.43;2.57;;;;;;;;;;5049208;28;20443;-78
2022/07/13 03:18:00;;;;;;;3.50;2.10;;;;;;;;;;5049250;28;20384;-76
2022/07/13 03:20:26;;;;;;;2.87;2.53;;;;;;;;;;5047838;28;20384;-77
2022/07/13 03:22:52;;;;;;;2.63;2.33;;;;;;;;;;5051261;28;20390;-77
2022/07/13 03:25:18;;;;;;;2.67;2.43;;;;;;;;;;5052305;28;20432;-76
2022/07/13 03:27:44;;;;;;;2.53;2.20;;;;;;;;;;5052437;28;20507;-76
2022/07/13 03:30:10;;;;;;;3.00;1.77;;;;;;;;;;5052545;28;20779;-77
2022/07/13 03:32:36;;;;;;;3.87;2.10;;;;;;;;;;5052173;28;20440;-77
2022/07/13 03:35:03;;;;;;;1.90;1.70;;;;;;;;;;5051968;28;20403;-78
2022/07/13 03:37:29;;;;;;;2.30;2.10;;;;;;;;;;5051141;28;20385;-78
2022/07/13 03:39:55;;;;;;;2.27;2.07;;;;;;;;;;5051217;27;20388;-77
2022/07/13 03:42:21;;;;;;;3.27;2.27;;;;;;;;;;5052090;28;20412;-77
2022/07/13 03:44:47;;;;;;;2.20;2.00;;;;;;;;;;5051622;28;20409;-77
2022/07/13 03:47:13;;;;;;;2.47;2.27;;;;;;;;;;5052031;28;20527;-76
2022/07/13 03:49:39;;;;;;;2.90;1.90;;;;;;;;;;5050809;28;20792;-77
2022/07/13 03:52:05;;;;;;;2.47;2.07;;;;;;;;;;5051856;28;20395;-78
2022/07/13 03:54:31;;;;;;;3.13;2.10;;;;;;;;;;5051410;28;20424;-77
2022/07/13 03:56:58;;;;;;;2.30;1.93;;;;;;;;;;5051691;28;20450;-78
2022/07/13 03:59:24;;;;;;;8.13;2.00;;;;;;;;;;5050938;28;20416;-77
2022/07/13 04:01:50;;;;;;;3.03;2.10;;;;;;;;;;5051743;28;20391;-77
2022/07/13 04:04:16;;;;;;;2.30;2.10;;;;;;;;;;5051368;28;20409;-78
2022/07/13 04:06:42;;;;;;;2.07;1.97;;;;;;;;;;5051474;28;20441;-78
2022/07/13 04:09:08;;;;;;;2.70;2.00;;;;;;;;;;5051934;28;20435;-75
2022/07/13 04:11:34;;;;;;;2.17;2.07;;;;;;;;;;5051680;28;20420;-77
2022/07/13 04:13:59;;;;;;;5.20;1.73;;;;;;;;;;5051158;28;20425;-78
2022/07/13 04:16:25;;;;;;;3.13;2.10;;;;;;;;;;5051298;28;20931;-78
2022/07/13 04:18:51;;;;;;;1.87;1.47;;;;;;;;;;5051363;28;20405;-78
2022/07/13 04:21:17;;;;;;;3.93;2.03;;;;;;;;;;5051685;28;20405;-78
2022/07/13 04:23:43;;;;;;;1.90;1.70;;;;;;;;;;5049925;28;20897;-78
2022/07/13 04:26:09;;;;;;;2.10;2.00;;;;;;;;;;5051504;28;20464;-77
2022/07/13 04:28:35;;;;;;;2.80;1.83;;;;;;;;;;5051610;28;20480;-78
2022/07/13 04:31:01;;;;;;;1.80;1.70;;;;;;;;;;5051198;28;20416;-77
2022/07/13 04:33:27;;;;;;;2.30;1.90;;;;;;;;;;5050309;28;20435;-77
2022/07/13 04:35:53;;;;;;;2.20;1.80;;;;;;;;;;5051170;28;20469;-78
2022/07/13 04:38:19;;;;;;;2.20;2.00;;;;;;;;;;5051306;28;20420;-78
2022/07/13 04:40:46;;;;;;;5.70;1.77;;;;;;;;;;5051201;28;20461;-78
2022/07/13 04:43:12;;;;;;;2.80;2.17;;;;;;;;;;5050753;28;20415;-77
2022/07/13 04:45:38;;;;;;;2.43;1.63;;;;;;;;;;5049783;28;20468;-78
2022/07/13 04:48:05;;;;;;;3.70;2.23;;;;;;;;;;5051118;28;20424;-78
2022/07/13 04:50:30;;;;;;;1.97;1.87;;;;;;;;;;5051047;28;20427;-78
2022/07/13 04:52:56;;;;;;;2.40;1.93;;;;;;;;;;5050580;28;20421;-77
2022/07/13 04:55:23;;;;;;;5.00;1.83;;;;;;;;;;5050963;28;20655;-78
2022/07/13 04:57:49;;;;;;;1.70;1.60;;;;;;;;;;5050916;28;20790;-78
2022/07/13 05:00:16;;;;;;;4.50;1.80;;;;;;;;;;5050812;28;20439;-77
2022/07/13 05:02:42;;;;;;;2.20;1.60;;;;;;;;;;5050897;28;20387;-78
2022/07/13 05:05:08;;;;;;;1.60;1.50;;;;;;;;;;5050211;28;20455;-78
2022/07/13 05:07:34;;;;;;;2.57;1.67;;;;;;;;;;5050799;28;20417;-78
2022/07/13 05:10:00;;;;;;;3.03;2.73;;;;;;;;;;5049487;28;20417;-78
2022/07/13 05:12:26;;;;;;;2.53;2.07;;;;;;;;;;5050641;28;20416;-78
2022/07/13 05:14:52;;;;;;;3.53;2.33;;;;;;;;;;5050374;28;20413;-78
2022/07/13 05:17:18;;;;;;;4.73;2.27;;;;;;;;;;5050409;28;20464;-77
2022/07/13 05:19:44;;;;;;;5.30;2.20;;;;;;;;;;5050530;28;20444;-76
2022/07/13 05:22:10;;;;;;;3.23;2.10;;;;;;;;;;5050729;28;20740;-78
2022/07/13 05:24:36;;;;;;;2.07;1.90;;;;;;;;;;5050665;28;20414;-78
2022/07/13 05:27:02;;;;;;;3.93;1.93;;;;;;;;;;5050571;28;20464;-78
2022/07/13 05:29:29;;;;;;;2.17;1.90;;;;;;;;;;5050344;28;20420;-75
2022/07/13 05:31:54;;;;;;;3.50;1.70;;;;;;;;;;5050392;28;20473;-75
2022/07/13 05:34:21;;;;;;;3.60;1.87;;;;;;;;;;5049945;28;20875;-75
2022/07/13 05:36:46;;;;;;;3.17;1.77;;;;;;;;;;5050354;28;20495;-75
2022/07/13 05:39:12;;;;;;;3.10;2.30;;;;;;;;;;5050252;28;20409;-77
2022/07/13 05:41:39;;;;;;;2.43;2.00;;;;;;;;;;5050334;28;20767;-78
2022/07/13 05:44:05;;;;;;;3.13;1.93;;;;;;;;;;5049885;28;20416;-77
2022/07/13 05:46:31;;;;;;;3.20;2.33;;;;;;;;;;5050061;28;20437;-77
2022/07/13 05:48:57;;;;;;;2.30;2.10;;;;;;;;;;5050054;28;20474;-78
2022/07/13 05:51:23;;;;;;;3.37;2.03;;;;;;;;;;5049992;28;20830;-77
2022/07/13 05:53:50;;;;;;;3.10;1.70;;;;;;;;;;5049795;28;20412;-77
2022/07/13 05:56:16;;;;;;;2.57;2.00;;;;;;;;;;5050090;28;20439;-77
2022/07/13 05:58:42;;;;;;;2.90;1.97;;;;;;;;;;5050059;28;20561;-78
2022/07/13 06:01:08;;;;;;;2.07;1.87;;;;;;;;;;5049913;28;20488;-78
2022/07/13 06:03:34;;;;;;;2.23;2.03;;;;;;;;;;5049466;28;20428;-77
2022/07/13 06:06:00;;;;;;;2.20;2.00;;;;;;;;;;5048664;28;20446;-78
2022/07/13 06:08:26;;;;;;;4.07;1.77;;;;;;;;;;5049831;28;20897;-77
2022/07/13 06:10:55;;;;;;;2.30;1.67;;;;;;;;;;5048967;28;20417;-77
2022/07/13 06:13:21;;;;;;;3.80;1.70;;;;;;;;;;5049422;28;20425;-77
2022/07/13 06:15:47;;;;;;;3.30;1.63;;;;;;;;;;5048431;28;20468;-77
2022/07/13 06:18:13;;;;;;;4.53;2.30;;;;;;;;;;5048458;28;20437;-77
2022/07/13 06:20:39;;;;;;;2.50;1.77;;;;;;;;;;5049865;28;20388;-77
2022/07/13 06:23:10;;;;;;;4.80;1.70;;;;;;;;;;5031602;28;20511;-77
2022/07/13 06:25:37;;;;;;;2.20;1.60;;;;;;;;;;5049753;28;20436;-77
2022/07/13 06:28:04;;;;;;;5.70;2.20;;;;;;;;;;5049883;28;20417;-77
2022/07/13 06:30:29;;;;;;;3.73;2.23;;;;;;;;;;5049745;28;20421;-77
2022/07/13 06:32:55;;;;;;;2.40;1.87;;;;;;;;;;5049127;28;20444;-78
2022/07/13 06:35:22;;;;;;;4.33;1.97;;;;;;;;;;5049205;28;20481;-78
2022/07/13 06:37:49;;;;;;;6.00;1.93;;;;;;;;;;5049505;28;20400;-77
2022/07/13 06:40:15;;;;;;;2.83;2.00;;;;;;;;;;5049578;28;20483;-78
2022/07/13 06:42:41;;;;;;;2.73;2.00;;;;;;;;;;5049469;28;20435;-77
2022/07/13 06:45:07;;;;;;;3.80;2.10;;;;;;;;;;5049004;28;20844;-78
2022/07/13 06:47:33;;;;;;;3.33;1.90;;;;;;;;;;5049237;28;20426;-79
2022/07/13 06:49:59;;;;;;;3.50;2.00;;;;;;;;;;5047741;28;20435;-77
2022/07/13 06:52:25;;;;;;;4.60;2.37;;;;;;;;;;5049359;28;20922;-77
2022/07/13 06:54:51;;;;;;;3.67;2.40;;;;;;;;;;5048951;28;20426;-77
2022/07/13 06:57:17;;;;;;;3.73;2.20;;;;;;;;;;5049650;28;20572;-77
2022/07/13 06:59:43;;;;;;;2.50;1.93;;;;;;;;;;5051700;28;20873;-79
2022/07/13 07:02:09;;;;;;;3.30;2.30;;;;;;;;;;5052715;28;20468;-77
2022/07/13 07:04:35;;;;;;;4.77;1.70;;;;;;;;;;5050984;28;20420;-78
2022/07/13 07:07:02;;;;;;;2.63;2.20;;;;;;;;;;5052558;28;20439;-77
2022/07/13 07:09:28;;;;;;;4.10;2.10;;;;;;;;;;5052595;28;20855;-77
2022/07/13 07:11:54;;;;;;;4.43;1.70;;;;;;;;;;5051077;28;20464;-80
2022/07/13 07:14:20;;;;;;;6.07;2.20;;;;;;;;;;5052255;28;20512;-77
2022/07/13 07:16:46;;;;;;;3.80;1.93;;;;;;;;;;5052241;28;20902;-77
2022/07/13 07:19:12;;;;;;;4.13;2.57;;;;;;;;;;5051264;28;20417;-78
2022/07/13 07:21:40;;;;;;;3.40;1.80;;;;;;;;;;5052294;28;20411;-78
2022/07/13 07:24:06;;;;;;;4.70;1.90;;;;;;;;;;5051930;28;20491;-77
2022/07/13 07:26:32;;;;;;;4.33;1.90;;;;;;;;;;5052062;28;20525;-77
2022/07/13 07:28:58;;;;;;;2.93;1.60;;;;;;;;;;5052293;28;20413;-80
2022/07/13 07:31:24;;;;;;;3.00;2.07;;;;;;;;;;5052194;28;20427;-77
2022/07/13 07:33:51;;;;;;;3.33;2.20;;;;;;;;;;5051956;28;20903;-78
2022/07/13 07:36:16;;;;;;;3.70;2.20;;;;;;;;;;5051993;28;20463;-78
2022/07/13 07:38:45;;;;;;;3.57;2.20;;;;;;;;;;5052293;28;20927;-78
2022/07/13 07:41:11;;;;;;;3.43;2.70;;;;;;;;;;5052241;28;20453;-78
2022/07/13 07:43:38;;;;;;;4.83;2.30;;;;;;;;;;5051859;28;20409;-79
2022/07/13 07:46:04;;;;;;;5.70;2.37;;;;;;;;;;5052105;28;20434;-79
2022/07/13 07:48:30;;;;;;;3.40;2.27;;;;;;;;;;5052033;28;20802;-79
2022/07/13 07:50:57;;;;;;;5.30;2.30;;;;;;;;;;5051797;28;20417;-78
2022/07/13 07:53:23;;;;;;;4.40;2.07;;;;;;;;;;5051602;28;20489;-77
2022/07/13 07:55:49;;;;;;;5.83;2.30;;;;;;;;;;5050605;28;20532;-75
2022/07/13 07:58:15;;;;;;;6.70;2.00;;;;;;;;;;5051632;28;20512;-79
2022/07/13 08:00:41;;;;;;;7.77;2.43;;;;;;;;;;5051869;28;20881;-79
2022/07/13 08:03:08;;;;;;;4.23;2.63;;;;;;;;;;5051216;28;20412;-78
2022/07/13 08:05:34;;;;;;;4.73;2.40;;;;;;;;;;5051466;28;20857;-78
2022/07/13 08:08:00;;;;;;;9.27;3.07;;;;;;;;;;5050544;28;20417;-78
2022/07/13 08:10:26;;;;;;;3.50;2.67;;;;;;;;;;5051484;28;20932;-78
2022/07/13 08:12:53;;;;;;;4.23;2.90;;;;;;;;;;5050033;28;20434;-78
2022/07/13 08:15:19;;;;;;;3.80;2.87;;;;;;;;;;5051322;28;20432;-76
2022/07/13 08:17:45;;;;;;;5.97;2.73;;;;;;;;;;5051599;28;20772;-78
2022/07/13 08:20:11;;;;;;;5.20;3.23;;;;;;;;;;5051434;28;20420;-76
2022/07/13 08:22:38;;;;;;;6.97;2.87;;;;;;;;;;5051293;28;20424;-76
2022/07/13 08:25:04;;;;;;;3.73;2.83;;;;;;;;;;5049561;28;20432;-78
2022/07/13 08:27:32;;;;;;;4.30;2.50;;;;;;;;;;5051234;28;20412;-75
2022/07/13 08:29:58;;;;;;;5.23;3.03;;;;;;;;;;5051376;28;20829;-76
2022/07/13 08:32:24;;;;;;;2.50;2.30;;;;;;;;;;5051055;28;20447;-77
2022/07/13 08:40:20;;;;;;;7.97;2.40;;;;;;;;;;5051307;28;20507;-80
2022/07/13 08:42:47;;;;;;;9.67;2.57;;;;;;;;;;5050878;28;20406;-79
2022/07/13 08:45:13;;;;;;;4.30;2.87;;;;;;;;;;5050720;28;20850;-77
2022/07/13 08:47:40;;;;;;;3.97;2.20;;;;;;;;;;5050969;28;20419;-78
2022/07/13 08:50:07;;;;;;;4.70;2.00;;;;;;;;;;5050892;28;20408;-79
2022/07/13 08:52:35;;;;;;;14.30;3.60;;;;;;;;;;5050904;28;20431;-77
2022/07/13 08:55:05;;;;;;;5.47;2.47;;;;;;;;;;5050600;28;20431;-78
2022/07/13 08:57:34;;;;;;;6.20;2.40;;;;;;;;;;5051015;28;20761;-79
2022/07/13 09:00:00;;;;;;;6.80;2.53;;;;;;;;;;5050915;28;20405;-76
2022/07/13 09:02:26;;;;;;;5.67;2.40;;;;;;;;;;5050699;28;20416;-79
2022/07/13 09:08:06;;;;;;;5.93;2.60;;;;;;;;;;5049942;28;20492;-78
2022/07/13 09:10:32;;;;;;;11.80;2.47;;;;;;;;;;5050521;28;20408;-79
2022/07/13 09:12:58;;;;;;;7.53;2.50;;;;;;;;;;5050177;28;20397;-79
2022/07/13 09:15:24;;;;;;;6.27;2.37;;;;;;;;;;5050462;28;20503;-80
2022/07/13 09:17:50;;;;;;;4.97;2.07;;;;;;;;;;5050451;28;20426;-79
2022/07/13 09:20:17;;;;;;;8.00;2.57;;;;;;;;;;5050132;28;20424;-78
2022/07/13 09:22:46;;;;;;;4.30;1.87;;;;;;;;;;5050418;28;20412;-77
2022/07/13 09:25:14;;;;;;;5.90;2.60;;;;;;;;;;5049232;28;20801;-77
2022/07/13 09:27:50;;;;;;;4.93;2.13;;;;;;;;;;5050019;28;20436;-79
2022/07/13 09:30:23;;;;;;;9.13;2.67;;;;;;;;;;5050412;28;20526;-78
2022/07/13 09:32:50;;;;;;;7.67;2.20;;;;;;;;;;5050227;28;20448;-80
2022/07/13 09:35:16;;;;;;;8.57;2.57;;;;;;;;;;5049301;28;20477;-79
2022/07/13 09:37:42;;;;;;;7.20;2.20;;;;;;;;;;5050166;28;20721;-78
2022/07/13 09:40:09;;;;;;;5.47;1.80;;;;;;;;;;5049581;28;20440;-78
2022/07/13 09:42:40;;;;;;;9.80;2.00;;;;;;;;;;5047145;28;20475;-78
2022/07/13 09:47:55;;;;;;;4.13;2.17;;;;;;;;;;5049703;28;20514;-79
2022/07/13 09:50:22;;;;;;;5.07;2.20;;;;;;;;;;5049378;28;20404;-79
2022/07/13 09:52:49;;;;;;;8.17;2.03;;;;;;;;;;5049685;28;20419;-78
2022/07/13 09:55:20;;;;;;;3.73;2.07;;;;;;;;;;5042319;28;20566;-78
2022/07/13 09:57:51;;;;;;;4.50;2.10;;;;;;;;;;5049585;28;20782;-78
2022/07/13 10:00:18;;;;;;;5.47;2.50;;;;;;;;;;5047172;28;20413;-79
2022/07/13 10:02:47;;;;;;;8.97;2.83;;;;;;;;;;5049195;28;20409;-77
2022/07/13 10:05:14;;;;;;;4.60;2.43;;;;;;;;;;5048905;28;20913;-75
2022/07/13 10:07:41;;;;;;;5.90;1.90;;;;;;;;;;5049374;28;20467;-77
2022/07/13 10:10:08;;;;;;;3.70;2.37;;;;;;;;;;5048911;28;20954;-77
2022/07/13 10:12:37;;;;;;;6.60;2.10;;;;;;;;;;5049119;28;20847;-77
2022/07/13 10:15:04;;;;;;;2.67;1.97;;;;;;;;;;5048765;28;20845;-77
2022/07/13 10:17:30;;;;;;;3.20;1.97;;;;;;;;;;5048727;28;20482;-77
2022/07/13 10:19:56;;;;;;;2.90;1.90;;;;;;;;;;5049112;28;20831;-77
2022/07/13 10:22:24;;;;;;;4.47;2.07;;;;;;;;;;5049370;28;20497;-76
2022/07/13 10:24:57;;;;;;;4.90;2.27;;;;;;;;;;5048689;28;20424;-77
2022/07/13 10:27:27;;;;;;;3.20;2.63;;;;;;;;;;5047780;28;20454;-76
2022/07/13 10:29:58;;;;;;;6.17;2.33;;;;;;;;;;5049379;28;20416;-77
2022/07/13 10:32:28;;;;;;;3.63;2.07;;;;;;;;;;5051373;28;20976;-76
2022/07/13 10:34:55;;;;;;;8.53;2.67;;;;;;;;;;5052517;28;20451;-76
2022/07/13 10:37:22;;;;;;;4.10;2.20;;;;;;;;;;5052750;28;20470;-76
2022/07/13 10:40:07;;;;;;;8.13;2.47;;;;;;;;;;5052963;28;21076;-78
2022/07/13 10:42:53;;;;;;;2.00;1.63;;;;;;;;;;5052971;28;20414;-77
2022/07/13 10:45:43;;;;;;;3.33;1.83;;;;;;;;;;5051752;28;20504;-77
2022/07/13 10:48:10;;;;;;;7.30;2.07;;;;;;;;;;5055383;28;20747;-77
2022/07/13 10:50:57;;;;;;;3.00;1.70;;;;;;;;;;5052596;28;20828;-77
2022/07/13 10:53:50;;;;;;;2.03;1.83;;;;;;;;;;5052539;28;20477;-77
2022/07/13 10:56:19;;;;;;;2.60;2.10;;;;;;;;;;5054788;28;20579;-77
2022/07/13 10:58:46;;;;;;;2.53;1.77;;;;;;;;;;5052692;28;20469;-76
2022/07/13 11:01:32;;;;;;;1.67;1.50;;;;;;;;;;5051112;28;20405;-77
2022/07/13 11:03:58;;;;;;;4.90;2.07;;;;;;;;;;5051821;28;20411;-77
2022/07/13 11:06:25;;;;;;;3.07;2.53;;;;;;;;;;5052288;28;20440;-77
2022/07/13 11:09:09;;;;;;;7.00;2.50;;;;;;;;;;5052065;28;20935;-77
2022/07/13 11:11:42;;;;;;;4.77;1.70;;;;;;;;;;5050351;28;20457;-77
2022/07/13 11:14:41;;;;;;;2.50;1.77;;;;;;;;;;5052014;28;20497;-77
2022/07/13 11:17:20;;;;;;;1.63;1.53;;;;;;;;;;5063375;28;20559;-75
2022/07/13 11:20:16;;;;;;;1.83;1.73;;;;;;;;;;5052141;28;20420;-75
2022/07/13 11:25:55;;;;;;;2.60;1.30;;;;;;;;;;5051282;28;20423;-75
2022/07/13 11:28:28;;;;;;;5.70;1.50;;;;;;;;;;5050857;28;20928;-75
2022/07/13 11:30:55;;;;;;;2.03;1.53;;;;;;;;;;5052365;28;20899;-74
2022/07/13 11:33:21;;;;;;;2.00;1.20;;;;;;;;;;5051660;28;20519;-76
2022/07/13 11:35:47;;;;;;;1.70;1.37;;;;;;;;;;5030914;28;20459;-76
2022/07/13 11:38:15;;;;;;;1.47;1.27;;;;;;;;;;5032168;28;20413;-77
2022/07/13 11:40:41;;;;;;;1.70;1.30;;;;;;;;;;5032244;28;20413;-77
2022/07/13 11:43:08;;;;;;;1.63;1.50;;;;;;;;;;5031816;28;20871;-77
2022/07/13 11:45:34;;;;;;;2.03;1.47;;;;;;;;;;5032144;28;20430;-77
2022/07/13 11:48:02;;;;;;;2.27;1.30;;;;;;;;;;5032006;28;20414;-77
2022/07/13 11:50:40;;;;;;;1.97;1.40;;;;;;;;;;5031936;28;20410;-77
2022/07/13 11:53:06;;;;;;;4.97;1.37;;;;;;;;;;5031603;28;20421;-77
2022/07/13 11:55:32;;;;;;;3.20;1.60;;;;;;;;;;5031718;28;20457;-77
2022/07/13 11:58:01;;;;;;;3.90;1.40;;;;;;;;;;5031674;28;20485;-77
2022/07/13 12:00:28;;;;;;;2.50;1.10;;;;;;;;;;5031773;28;20438;-77
2022/07/13 12:02:55;;;;;;;2.30;1.30;;;;;;;;;;5031465;28;20413;-77
2022/07/13 12:05:26;;;;;;;3.20;1.43;;;;;;;;;;5031711;28;20438;-77
2022/07/13 12:08:05;;;;;;;4.03;1.50;;;;;;;;;;5031658;28;20843;-77
2022/07/13 12:10:34;;;;;;;6.33;1.40;;;;;;;;;;5050413;28;20427;-76
2022/07/13 12:13:00;;;;;;;3.07;1.57;;;;;;;;;;5051151;28;20742;-77
2022/07/13 12:15:26;;;;;;;3.53;1.53;;;;;;;;;;5051048;28;20504;-77
2022/07/13 12:17:53;;;;;;;3.30;1.87;;;;;;;;;;5050923;28;20415;-77
2022/07/13 12:20:20;;;;;;;2.53;1.30;;;;;;;;;;5051732;28;21048;-76
2022/07/13 12:22:52;;;;;;;4.30;1.93;;;;;;;;;;5051268;28;20465;-77
2022/07/13 12:25:24;;;;;;;2.47;1.50;;;;;;;;;;5051208;28;20421;-77
2022/07/13 12:27:54;;;;;;;2.80;1.30;;;;;;;;;;5051662;28;20476;-76
2022/07/13 12:30:20;;;;;;;4.83;1.77;;;;;;;;;;5051109;28;20452;-76
2022/07/13 12:33:05;;;;;;;4.00;1.40;;;;;;;;;;5050936;28;20425;-77
2022/07/13 12:35:36;;;;;;;1.93;1.50;;;;;;;;;;5051137;28;20438;-76
2022/07/13 12:38:04;;;;;;;4.03;1.43;;;;;;;;;;5051005;28;20408;-76
2022/07/13 12:40:36;;;;;;;3.83;1.63;;;;;;;;;;5051047;28;20410;-76
2022/07/13 12:43:05;;;;;;;5.90;2.00;;;;;;;;;;5050620;28;20424;-74
2022/07/13 12:45:31;;;;;;;1.40;1.23;;;;;;;;;;5051067;28;20437;-76
2022/07/13 12:47:57;;;;;;;1.57;1.10;;;;;;;;;;5064476;27;20494;-77
2022/07/13 12:50:30;;;;;;;2.50;1.30;;;;;;;;;;5087887;27;20416;-76
2022/07/13 12:52:59;;;;;;;2.10;1.50;;;;;;;;;;5134858;27;20413;-75
2022/07/13 12:55:25;;;;;;;2.07;1.20;;;;;;;;;;5134336;27;20465;-76
2022/07/13 12:57:51;;;;;;;3.73;1.47;;;;;;;;;;5134877;27;20412;-75
2022/07/13 13:00:25;;;;;;;5.13;1.53;;;;;;;;;;5133382;27;20778;-76
2022/07/13 13:02:51;;;;;;;1.50;0.90;;;;;;;;;;5134918;27;20476;-75
2022/07/13 13:05:17;;;;;;;1.90;1.43;;;;;;;;;;5134924;27;20433;-77
2022/07/13 13:07:43;;;;;;;1.67;1.30;;;;;;;;;;5133471;27;20421;-74
2022/07/13 13:10:10;;;;;;;1.63;1.20;;;;;;;;;;5133467;27;20414;-75
2022/07/13 13:12:36;;;;;;;2.53;1.53;;;;;;;;;;5134592;27;20416;-76
2022/07/13 13:15:03;;;;;;;3.40;1.40;;;;;;;;;;5132978;27;20513;-75
2022/07/13 13:17:29;;;;;;;1.63;1.30;;;;;;;;;;5134513;27;20492;-76
2022/07/13 13:19:55;;;;;;;3.80;1.57;;;;;;;;;;5134613;27;20738;-75
2022/07/13 13:22:22;;;;;;;1.70;1.30;;;;;;;;;;5133259;27;20421;-75
2022/07/13 13:24:49;;;;;;;2.63;1.20;;;;;;;;;;5133960;27;20424;-75
2022/07/13 13:27:15;;;;;;;3.13;1.47;;;;;;;;;;5134365;27;20405;-76
2022/07/13 13:32:26;;;;;;;3.10;1.10;;;;;;;;;;5134613;27;20427;-75
2022/07/13 13:34:52;;;;;;;1.77;1.30;;;;;;;;;;5133874;27;20503;-75
2022/07/13 13:37:18;;;;;;;2.20;1.07;;;;;;;;;;5134707;27;20586;-75
2022/07/13 13:39:44;;;;;;;3.73;1.20;;;;;;;;;;5134510;27;20401;-75
2022/07/13 13:42:10;;;;;;;4.13;1.23;;;;;;;;;;5132999;27;20919;-76
2022/07/13 13:44:36;;;;;;;2.97;1.13;;;;;;;;;;5134028;27;20420;-76
2022/07/13 13:47:02;;;;;;;1.80;1.00;;;;;;;;;;5134086;27;20437;-76
2022/07/13 13:49:28;;;;;;;4.40;1.27;;;;;;;;;;5134054;27;20512;-75
2022/07/13 13:51:54;;;;;;;1.93;1.13;;;;;;;;;;5134204;27;20470;-75
2022/07/13 13:54:20;;;;;;;2.17;1.30;;;;;;;;;;5133656;27;20969;-75
2022/07/13 13:56:46;;;;;;;3.63;1.70;;;;;;;;;;5133791;27;20465;-75
2022/07/13 13:59:12;;;;;;;5.83;1.50;;;;;;;;;;5133870;27;20901;-75
2022/07/13 14:01:39;;;;;;;1.83;1.40;;;;;;;;;;5132694;27;20405;-77
2022/07/13 14:04:05;;;;;;;2.60;1.13;;;;;;;;;;5132251;27;20929;-75
2022/07/13 14:06:31;;;;;;;1.80;1.30;;;;;;;;;;5131541;27;20505;-76
2022/07/13 14:08:57;;;;;;;2.90;1.47;;;;;;;;;;5133538;27;20412;-76
2022/07/13 14:11:23;;;;;;;2.97;1.43;;;;;;;;;;5133610;27;20927;-76
2022/07/13 14:13:49;;;;;;;2.20;1.00;;;;;;;;;;5133412;27;20401;-75
2022/07/13 14:16:15;;;;;;;1.73;1.47;;;;;;;;;;5133597;27;20529;-75
2022/07/13 14:18:41;;;;;;;1.53;1.33;;;;;;;;;;5133769;28;20396;-76
2022/07/13 14:21:07;;;;;;;2.70;1.40;;;;;;;;;;5133365;28;20793;-76
2022/07/13 14:23:33;;;;;;;5.00;1.33;;;;;;;;;;5133307;28;20409;-75
2022/07/13 14:26:05;;;;;;;2.83;1.00;;;;;;;;;;5133909;28;20860;-76
2022/07/13 14:28:31;;;;;;;1.93;1.67;;;;;;;;;;5134275;28;20417;-76
2022/07/13 14:30:57;;;;;;;8.37;1.80;;;;;;;;;;5134010;28;20406;-76
2022/07/13 14:33:23;;;;;;;4.77;2.27;;;;;;;;;;5133191;28;20433;-76
2022/07/13 14:35:49;;;;;;;2.77;1.40;;;;;;;;;;5132446;28;20496;-75
2022/07/13 14:38:16;;;;;;;5.07;1.50;;;;;;;;;;5134013;28;20401;-76
2022/07/13 14:40:44;;;;;;;1.97;1.50;;;;;;;;;;5133875;28;20920;-76
2022/07/13 14:43:10;;;;;;;3.20;1.20;;;;;;;;;;5133402;28;20411;-75
2022/07/13 14:45:36;;;;;;;2.30;1.33;;;;;;;;;;5133653;28;20471;-76
2022/07/13 14:48:03;;;;;;;5.63;1.37;;;;;;;;;;5133801;28;20536;-75
2022/07/13 14:50:32;;;;;;;2.53;1.30;;;;;;;;;;5133599;28;20437;-76
2022/07/13 14:52:59;;;;;;;3.37;1.80;;;;;;;;;;5133502;28;20730;-75
2022/07/13 14:55:25;;;;;;;2.77;1.33;;;;;;;;;;5133245;28;20499;-76
2022/07/13 14:57:51;;;;;;;2.97;1.83;;;;;;;;;;5133529;28;20497;-76
2022/07/13 15:00:18;;;;;;;2.83;1.70;;;;;;;;;;5133516;28;20726;-76